Time;durP1;ratioP1;P1;durP2;ratioP2;P2;SDS_P1;SDS_P2;PMS_P1;PMS_P2;Temp;Humidity;BMP_temperature;BMP_pressure;BME280_temperature;BME280_humidity;BME280_pressure;Samples;Min_cycle;Max_cycle;Signal;HPM_P1;HPM_P2
2021/11/29 00:02:23;;;;;;;2.50;1.00;;;;;;;16.69;61.50;100536.59;4919125;29;20027;-81
2021/11/29 00:04:48;;;;;;;2.38;0.90;;;;;;;16.69;61.79;100546.97;4919129;29;20028;-84
2021/11/29 00:07:14;;;;;;;3.65;1.20;;;;;;;16.68;61.38;100537.47;4903523;29;20490;-84
2021/11/29 00:09:39;;;;;;;2.17;1.13;;;;;;;16.68;61.33;100524.47;4903601;29;20027;-81
2021/11/29 00:12:05;;;;;;;2.72;0.90;;;;;;;16.69;61.61;100538.31;4903543;29;20066;-82
2021/11/29 00:14:31;;;;;;;2.55;0.93;;;;;;;16.69;61.41;100533.13;4903638;29;20561;-83
2021/11/29 00:16:56;;;;;;;2.90;1.00;;;;;;;16.70;61.59;100540.91;4919333;29;20032;-83
2021/11/29 00:19:21;;;;;;;1.95;0.88;;;;;;;16.69;61.07;100540.94;4919291;29;20110;-82
2021/11/29 00:21:47;;;;;;;2.10;0.95;;;;;;;16.69;61.44;100533.13;4887837;29;20114;-82
2021/11/29 00:24:12;;;;;;;2.10;0.90;;;;;;;16.69;61.53;100526.19;4919487;29;20028;-83
2021/11/29 00:26:38;;;;;;;2.15;1.05;;;;;;;16.67;61.25;100520.16;4903341;29;20031;-82
2021/11/29 00:29:04;;;;;;;1.80;0.98;;;;;;;16.69;61.45;100521.00;4919063;29;20036;-79
2021/11/29 00:31:30;;;;;;;2.28;0.93;;;;;;;16.69;60.96;100521.00;4919049;29;20024;-80
2021/11/29 00:33:55;;;;;;;2.20;1.00;;;;;;;16.68;61.18;100519.28;4903317;29;20036;-83
2021/11/29 00:36:20;;;;;;;2.70;1.00;;;;;;;16.69;61.03;100513.19;4918974;29;20040;-83
2021/11/29 00:38:46;;;;;;;3.15;1.10;;;;;;;16.67;61.11;100518.41;4934621;29;20056;-84
2021/11/29 00:41:11;;;;;;;2.05;0.90;;;;;;;16.68;60.85;100516.69;4935929;29;20114;-84
2021/11/29 00:43:37;;;;;;;1.58;0.85;;;;;;;16.69;61.31;100525.34;4918784;29;20031;-82
2021/11/29 00:46:03;;;;;;;2.92;1.20;;;;;;;16.67;60.86;100522.75;4918841;29;20451;-84
2021/11/29 00:48:28;;;;;;;2.42;0.98;;;;;;;16.67;60.83;100518.41;4903221;29;20051;-84
2021/11/29 00:50:53;;;;;;;1.38;0.80;;;;;;;16.67;60.96;100512.34;4903128;29;20126;-84
2021/11/29 00:53:19;;;;;;;3.45;0.98;;;;;;;16.67;61.37;100509.75;4903181;29;20119;-85
2021/11/29 00:55:44;;;;;;;1.98;1.10;;;;;;;16.67;61.14;100508.00;4918666;29;20042;-83
2021/11/29 00:58:10;;;;;;;1.80;0.73;;;;;;;16.66;61.03;100510.66;4918804;29;20028;-81
2021/11/29 01:00:37;;;;;;;2.17;0.95;;;;;;;16.67;60.68;100520.16;4887417;29;20028;-80
2021/11/29 01:03:03;;;;;;;2.35;0.90;;;;;;;16.67;60.79;100518.41;4934480;29;20371;-84
2021/11/29 01:05:30;;;;;;;1.73;0.70;;;;;;;16.67;61.00;100526.19;4934485;29;20027;-84
2021/11/29 01:07:56;;;;;;;1.45;0.80;;;;;;;16.65;60.95;100530.53;4887758;29;20036;-85
2021/11/29 01:10:22;;;;;;;3.15;0.90;;;;;;;16.66;60.41;100534.88;4887466;29;20064;-84
2021/11/29 01:12:48;;;;;;;2.25;0.80;;;;;;;16.66;61.06;100528.84;4918751;29;20059;-84
2021/11/29 01:15:20;;;;;;;1.88;0.85;;;;;;;16.66;60.66;100534.03;4904173;29;20478;-84
2021/11/29 01:17:46;;;;;;;2.28;0.90;;;;;;;16.66;60.74;100534.03;4922401;29;20028;-83
2021/11/29 01:20:13;;;;;;;2.20;0.90;;;;;;;16.65;60.58;100538.34;4906666;29;20035;-82
2021/11/29 01:22:42;;;;;;;3.55;0.90;;;;;;;16.65;60.86;100537.47;4922081;29;20051;-84
2021/11/29 01:25:08;;;;;;;2.10;0.90;;;;;;;16.65;60.40;100540.94;4906869;29;20028;-84
2021/11/29 01:27:34;;;;;;;3.50;0.90;;;;;;;16.65;60.44;100534.88;4890837;29;20087;-84
2021/11/29 01:29:59;;;;;;;2.85;0.95;;;;;;;16.65;60.37;100542.69;4906421;29;20043;-83
2021/11/29 01:32:25;;;;;;;1.52;1.00;;;;;;;16.64;60.66;100535.78;4890929;29;20035;-83
2021/11/29 01:34:50;;;;;;;2.00;0.80;;;;;;;16.63;60.51;100534.91;4937915;29;20024;-84
2021/11/29 01:37:16;;;;;;;2.13;0.70;;;;;;;16.63;60.54;100534.91;4891004;29;20455;-84
2021/11/29 01:39:41;;;;;;;2.47;0.80;;;;;;;16.64;60.34;100547.03;4938164;29;20051;-84
2021/11/29 01:42:08;;;;;;;2.05;0.60;;;;;;;16.64;60.35;100548.78;4906136;29;20034;-84
2021/11/29 01:44:35;;;;;;;1.55;0.90;;;;;;;16.63;60.12;100544.44;4906488;29;20058;-83
2021/11/29 01:47:00;;;;;;;1.58;0.70;;;;;;;16.65;60.48;100550.47;4890550;29;20036;-84
2021/11/29 01:49:26;;;;;;;1.88;0.70;;;;;;;16.64;60.20;100544.44;4921880;29;20028;-84
2021/11/29 01:51:51;;;;;;;2.67;0.90;;;;;;;16.63;60.41;100542.69;4921798;29;20131;-83
2021/11/29 01:54:17;;;;;;;1.63;0.80;;;;;;;16.63;60.15;100547.03;4921798;29;20042;-82
2021/11/29 01:56:42;;;;;;;2.85;0.95;;;;;;;16.63;60.15;100542.69;4905906;29;20075;-82
2021/11/29 01:59:09;;;;;;;2.42;0.90;;;;;;;16.63;60.25;100540.09;4921565;29;20079;-82
2021/11/29 02:01:35;;;;;;;1.75;0.70;;;;;;;16.62;60.08;100538.38;4937418;29;20447;-83
2021/11/29 02:04:01;;;;;;;1.52;0.77;;;;;;;16.62;60.43;100535.78;4921550;29;20028;-84
2021/11/29 02:06:29;;;;;;;2.25;0.70;;;;;;;16.62;59.98;100535.78;4905767;29;20390;-83
2021/11/29 02:08:56;;;;;;;1.63;0.80;;;;;;;16.63;59.94;100539.25;4905857;29;20031;-84
2021/11/29 02:11:22;;;;;;;5.93;0.85;;;;;;;16.62;60.25;100533.19;4905638;29;20157;-83
2021/11/29 02:13:48;;;;;;;1.38;0.68;;;;;;;16.62;59.90;100535.78;4937353;29;20059;-84
2021/11/29 02:16:14;;;;;;;2.00;0.82;;;;;;;16.63;59.62;100536.63;4890160;29;20127;-83
2021/11/29 02:18:43;;;;;;;1.98;0.70;;;;;;;16.63;59.60;100545.28;4890308;29;20099;-83
2021/11/29 02:21:14;;;;;;;2.95;0.85;;;;;;;16.62;59.81;100543.59;4921337;29;20070;-82
2021/11/29 02:23:46;;;;;;;1.67;0.70;;;;;;;16.61;59.88;100552.25;4937201;29;20090;-83
2021/11/29 02:26:12;;;;;;;1.67;0.60;;;;;;;16.63;59.69;100558.28;4921112;29;20470;-83
2021/11/29 02:28:40;;;;;;;1.75;0.80;;;;;;;16.62;59.88;100561.75;4920981;29;20095;-84
2021/11/29 02:31:12;;;;;;;1.42;0.80;;;;;;;16.63;59.49;100554.81;4920976;29;20024;-84
2021/11/29 02:33:37;;;;;;;2.25;0.73;;;;;;;16.62;59.49;100560.91;4936942;29;20138;-84
2021/11/29 02:36:04;;;;;;;1.67;0.73;;;;;;;16.62;59.59;100564.38;4920831;29;20309;-83
2021/11/29 02:38:30;;;;;;;2.13;0.75;;;;;;;16.61;59.50;100560.06;4937742;29;20039;-84
2021/11/29 02:40:55;;;;;;;2.33;0.80;;;;;;;16.62;59.06;100566.09;4920650;29;20040;-82
2021/11/29 02:43:21;;;;;;;1.20;0.73;;;;;;;16.60;59.49;100566.13;4904979;29;20086;-83
2021/11/29 02:45:46;;;;;;;2.30;0.90;;;;;;;16.62;59.49;100579.09;4904931;29;20047;-84
2021/11/29 02:48:12;;;;;;;3.13;0.85;;;;;;;16.61;59.14;100582.56;4889316;29;20031;-84
2021/11/29 02:50:38;;;;;;;1.83;0.80;;;;;;;16.61;59.08;100574.75;4889148;29;20494;-84
2021/11/29 02:53:06;;;;;;;0.95;0.60;;;;;;;16.61;59.33;100567.84;4920675;29;20027;-84
2021/11/29 02:55:31;;;;;;;2.25;0.77;;;;;;;16.60;59.09;100573.91;4936284;29;20023;-83
2021/11/29 02:57:57;;;;;;;2.45;0.95;;;;;;;16.60;59.06;100571.31;4889343;29;20039;-84
2021/11/29 03:00:22;;;;;;;2.05;0.60;;;;;;;16.59;59.03;100561.81;4904837;29;20031;-84
2021/11/29 03:03:09;;;;;;;2.03;0.80;;;;;;;16.60;59.16;100565.25;4904865;29;20054;-84
2021/11/29 03:05:35;;;;;;;2.15;0.80;;;;;;;16.60;59.20;100555.72;4920160;29;20032;-82
2021/11/29 03:08:01;;;;;;;1.80;0.73;;;;;;;16.60;59.31;100554.88;4920366;29;20027;-83
2021/11/29 03:10:26;;;;;;;2.60;0.77;;;;;;;16.60;59.13;100560.06;4920271;29;20451;-83
2021/11/29 03:12:52;;;;;;;1.35;0.70;;;;;;;16.60;58.67;100555.72;4920077;29;20039;-83
2021/11/29 03:15:17;;;;;;;1.73;0.82;;;;;;;16.60;58.84;100570.47;4904364;29;20031;-84
2021/11/29 03:17:43;;;;;;;1.30;0.60;;;;;;;16.58;58.69;100565.25;4920214;29;20039;-84
2021/11/29 03:20:13;;;;;;;1.67;0.77;;;;;;;16.59;58.99;100561.81;4920001;29;20122;-81
2021/11/29 03:22:38;;;;;;;1.63;0.65;;;;;;;16.59;58.53;100564.41;4904521;29;20397;-82
2021/11/29 03:25:05;;;;;;;1.77;0.80;;;;;;;16.60;58.78;100563.50;4904593;29;20031;-83
2021/11/29 03:27:30;;;;;;;2.55;0.68;;;;;;;16.58;58.71;100565.25;4919999;29;20157;-84
2021/11/29 03:29:56;;;;;;;2.70;0.70;;;;;;;16.58;58.95;100560.06;4888704;29;20081;-84
2021/11/29 03:32:22;;;;;;;1.70;0.70;;;;;;;16.58;58.33;100561.81;4904377;29;20027;-83
2021/11/29 03:34:49;;;;;;;2.65;0.90;;;;;;;16.58;58.66;100565.25;4904263;29;20036;-83
2021/11/29 03:37:18;;;;;;;3.35;0.68;;;;;;;16.59;58.55;100560.94;4903743;29;20083;-83
2021/11/29 03:39:44;;;;;;;1.67;0.70;;;;;;;16.58;58.79;100560.06;4936748;29;20062;-85
2021/11/29 03:42:10;;;;;;;2.25;0.75;;;;;;;16.58;58.62;100560.06;4888436;29;20068;-82
2021/11/29 03:44:36;;;;;;;2.38;0.65;;;;;;;16.58;58.62;100573.06;4919655;29;20028;-82
2021/11/29 03:47:04;;;;;;;2.75;0.80;;;;;;;16.58;58.22;100583.44;4903974;29;20174;-84
2021/11/29 03:49:29;;;;;;;2.45;0.90;;;;;;;16.57;58.25;100604.25;4919416;29;20024;-84
2021/11/29 03:51:55;;;;;;;2.25;0.80;;;;;;;16.59;58.27;100610.28;4888289;29;20035;-85
2021/11/29 03:54:21;;;;;;;2.20;0.80;;;;;;;16.58;57.96;100614.63;4919653;29;20485;-84
2021/11/29 03:56:47;;;;;;;2.70;0.90;;;;;;;16.59;58.23;100610.28;4935401;29;20414;-84
2021/11/29 03:59:12;;;;;;;2.53;0.82;;;;;;;16.58;58.41;100609.44;4903880;29;20048;-83
2021/11/29 04:01:38;;;;;;;1.30;0.70;;;;;;;16.57;58.29;100596.44;4903751;29;20028;-84
2021/11/29 04:04:04;;;;;;;2.53;0.77;;;;;;;16.58;58.17;100591.25;4903540;29;20039;-84
2021/11/29 04:06:29;;;;;;;1.70;0.68;;;;;;;16.58;58.37;100601.63;4919553;29;20177;-84
2021/11/29 04:08:55;;;;;;;1.13;0.55;;;;;;;16.57;58.12;100591.25;4903538;29;20482;-84
2021/11/29 04:11:20;;;;;;;1.40;0.70;;;;;;;16.56;58.11;100595.59;4935038;29;20039;-83
2021/11/29 04:13:46;;;;;;;2.35;0.90;;;;;;;16.57;58.08;100596.44;4888258;29;20435;-82
2021/11/29 04:16:13;;;;;;;2.85;0.90;;;;;;;16.56;58.08;100598.19;4919249;29;20028;-83
2021/11/29 04:18:41;;;;;;;1.88;0.70;;;;;;;16.56;58.17;100592.13;4903572;29;20110;-83
2021/11/29 04:21:06;;;;;;;2.75;0.90;;;;;;;16.55;57.80;100598.19;4903868;29;20521;-81
2021/11/29 04:23:32;;;;;;;3.00;0.82;;;;;;;16.56;57.85;100597.34;4936755;29;20064;-83
2021/11/29 04:26:00;;;;;;;1.80;0.80;;;;;;;16.55;57.80;100593.00;4919486;29;20122;-84
2021/11/29 04:28:25;;;;;;;2.40;0.85;;;;;;;16.55;57.60;100603.38;4888649;29;20031;-84
2021/11/29 04:30:51;;;;;;;1.73;0.63;;;;;;;16.55;58.01;100603.38;4936446;29;20111;-82
2021/11/29 04:33:16;;;;;;;2.53;0.85;;;;;;;16.55;58.38;100604.28;4903431;29;20094;-84
2021/11/29 04:35:42;;;;;;;1.75;0.90;;;;;;;16.55;58.03;100606.88;4887851;29;20046;-80
2021/11/29 04:38:08;;;;;;;1.90;0.73;;;;;;;16.56;58.29;100613.78;4903236;29;20048;-81
2021/11/29 04:40:33;;;;;;;1.77;0.90;;;;;;;16.55;58.01;100605.97;4919220;29;20028;-83
2021/11/29 04:42:59;;;;;;;2.58;0.70;;;;;;;16.55;58.08;100605.97;4903350;29;20034;-81
2021/11/29 04:45:25;;;;;;;1.90;0.80;;;;;;;16.56;57.62;100615.53;4903426;29;20620;-83
2021/11/29 04:47:50;;;;;;;2.50;0.90;;;;;;;16.53;57.89;100606.03;4936172;29;20060;-82
2021/11/29 04:50:16;;;;;;;2.20;0.90;;;;;;;16.53;57.69;100616.41;4889089;29;20159;-83
2021/11/29 04:52:42;;;;;;;2.72;0.90;;;;;;;16.53;57.72;100616.41;4907253;29;20028;-83
2021/11/29 04:55:08;;;;;;;3.17;0.90;;;;;;;16.52;57.72;100614.66;4907126;29;20063;-83
2021/11/29 04:57:34;;;;;;;2.13;0.80;;;;;;;16.53;57.88;100621.59;4907162;29;20059;-82
2021/11/29 04:59:59;;;;;;;2.45;0.90;;;;;;;16.53;57.48;100620.75;4906941;29;20120;-83
2021/11/29 05:02:25;;;;;;;2.00;0.80;;;;;;;16.53;57.57;100624.22;4922654;29;20092;-82
2021/11/29 05:04:50;;;;;;;3.78;0.95;;;;;;;16.53;57.40;100632.00;4891522;29;20035;-83
2021/11/29 05:07:16;;;;;;;2.03;0.90;;;;;;;16.54;57.36;100635.44;4891510;29;20032;-82
2021/11/29 05:09:42;;;;;;;2.75;0.80;;;;;;;16.53;57.71;100646.72;4906972;29;20032;-80
2021/11/29 05:12:10;;;;;;;3.53;1.02;;;;;;;16.54;57.67;100656.22;4922840;29;20035;-82
2021/11/29 05:14:35;;;;;;;2.17;0.90;;;;;;;16.54;57.30;100648.44;4906826;29;20038;-87
2021/11/29 05:17:01;;;;;;;3.15;0.77;;;;;;;16.53;57.11;100650.19;4907126;29;20402;-85
2021/11/29 05:19:26;;;;;;;3.97;0.80;;;;;;;16.53;57.64;100649.31;4891369;29;20482;-81
2021/11/29 05:21:52;;;;;;;1.67;0.80;;;;;;;16.53;57.51;100647.59;4891216;29;20066;-82
2021/11/29 05:24:17;;;;;;;1.88;0.68;;;;;;;16.54;57.36;100657.09;4906994;29;20031;-84
2021/11/29 05:26:43;;;;;;;2.15;1.00;;;;;;;16.53;57.31;100657.97;4907113;29;20054;-84
2021/11/29 05:29:08;;;;;;;5.93;0.80;;;;;;;16.53;57.24;100657.97;4939438;29;20032;-85
2021/11/29 05:31:34;;;;;;;2.17;0.80;;;;;;;16.53;57.40;100657.97;4891232;29;20169;-85
2021/11/29 05:34:01;;;;;;;1.95;0.85;;;;;;;16.54;57.09;100674.41;4907110;29;20057;-84
2021/11/29 05:36:27;;;;;;;2.78;0.82;;;;;;;16.52;57.15;100699.53;4892211;29;20035;-85
2021/11/29 05:38:52;;;;;;;3.65;0.80;;;;;;;16.54;57.08;100679.59;4890833;29;20056;-82
2021/11/29 05:41:17;;;;;;;1.70;0.70;;;;;;;16.52;57.21;100674.41;4922229;29;20041;-85
2021/11/29 05:43:43;;;;;;;1.70;1.00;;;;;;;16.53;57.43;100673.56;4891134;29;20083;-85
2021/11/29 05:46:09;;;;;;;1.73;0.70;;;;;;;16.53;57.38;100668.38;4906877;29;20038;-84
2021/11/29 05:48:34;;;;;;;2.72;1.00;;;;;;;16.53;56.96;100676.16;4922483;29;20054;-85
2021/11/29 05:51:00;;;;;;;1.77;0.70;;;;;;;16.52;57.12;100669.22;4906346;29;20090;-82
2021/11/29 05:53:27;;;;;;;2.05;0.70;;;;;;;16.53;57.17;100680.50;4939222;29;20019;-86
2021/11/29 05:55:53;;;;;;;2.08;0.70;;;;;;;16.52;57.18;100681.34;4922044;29;20115;-85
2021/11/29 05:58:18;;;;;;;2.70;0.70;;;;;;;16.52;57.46;100670.97;4890550;29;20127;-85
2021/11/29 06:00:45;;;;;;;2.65;0.98;;;;;;;16.50;57.17;100668.38;4905590;29;20118;-84
2021/11/29 06:03:10;;;;;;;2.33;0.88;;;;;;;16.51;56.98;100679.66;4905951;29;20056;-85
2021/11/29 06:05:36;;;;;;;2.33;0.90;;;;;;;16.50;57.23;100683.94;4906226;29;20569;-83
2021/11/29 06:08:02;;;;;;;3.00;1.00;;;;;;;16.49;57.23;100682.25;4921652;29;20036;-83
2021/11/29 06:10:27;;;;;;;2.67;0.90;;;;;;;16.49;57.48;100695.22;4938600;29;20059;-85
2021/11/29 06:12:53;;;;;;;2.08;0.75;;;;;;;16.49;57.10;100692.63;4890298;29;20055;-84
2021/11/29 06:15:19;;;;;;;2.22;0.93;;;;;;;16.50;57.35;100698.69;4905809;29;20032;-84
2021/11/29 06:17:44;;;;;;;3.75;1.13;;;;;;;16.49;57.29;100697.84;4905578;29;20027;-82
2021/11/29 06:20:19;;;;;;;6.35;1.75;;;;;;;16.50;57.26;100698.69;4905847;29;20075;-81
2021/11/29 06:22:49;;;;;;;5.57;1.98;;;;;;;16.51;57.32;100709.06;4906047;29;20039;-75
2021/11/29 06:25:15;;;;;;;9.30;2.30;;;;;;;16.51;57.30;100713.41;4937042;29;20027;-80
2021/11/29 06:27:40;;;;;;;7.95;2.13;;;;;;;16.51;57.59;100718.59;4905605;29;20500;-81
2021/11/29 06:30:06;;;;;;;5.78;1.95;;;;;;;16.53;57.95;100727.25;4905582;29;20457;-87
2021/11/29 06:32:32;;;;;;;11.20;1.90;;;;;;;16.53;58.11;100715.13;4921851;29;20031;-80
2021/11/29 06:34:57;;;;;;;6.03;1.70;;;;;;;16.57;57.90;100708.16;4921741;29;20032;-82
2021/11/29 06:37:26;;;;;;;6.20;1.90;;;;;;;16.59;57.97;100714.19;4905782;29;20078;-80
2021/11/29 06:39:52;;;;;;;12.40;2.10;;;;;;;16.58;58.21;100710.75;4937900;29;20155;-79
2021/11/29 06:42:18;;;;;;;5.07;1.95;;;;;;;16.59;58.23;100709.88;4904751;29;20177;-80
2021/11/29 06:44:43;;;;;;;8.90;2.10;;;;;;;16.59;57.99;100709.00;4905157;29;20122;-80
2021/11/29 06:47:09;;;;;;;8.13;1.90;;;;;;;16.59;58.12;100709.00;4905143;29;20036;-81
2021/11/29 06:49:34;;;;;;;6.35;1.77;;;;;;;16.60;58.10;100705.53;4936887;29;20487;-78
2021/11/29 06:52:03;;;;;;;4.93;1.95;;;;;;;16.60;58.27;100714.19;4905178;29;20031;-78
2021/11/29 06:54:28;;;;;;;8.68;1.60;;;;;;;16.60;58.05;100731.53;4937980;29;20059;-80
2021/11/29 06:56:54;;;;;;;5.65;1.55;;;;;;;16.62;58.13;100738.44;4937908;29;20043;-79
2021/11/29 06:59:19;;;;;;;3.38;1.65;;;;;;;16.61;58.13;100736.72;4905255;29;20032;-80
2021/11/29 07:01:45;;;;;;;3.75;1.35;;;;;;;16.62;58.12;100730.63;4921018;29;20367;-81
2021/11/29 07:04:10;;;;;;;6.57;1.85;;;;;;;16.61;58.28;100735.84;4892200;29;20036;-83
2021/11/29 07:06:38;;;;;;;5.43;1.50;;;;;;;16.60;57.98;100736.72;4905632;29;20032;-81
2021/11/29 07:09:04;;;;;;;4.72;1.70;;;;;;;16.59;58.00;100743.66;4938198;29;20059;-85
2021/11/29 07:11:29;;;;;;;5.20;1.40;;;;;;;16.60;57.71;100747.13;4929878;29;20102;-83
2021/11/29 07:13:55;;;;;;;5.15;1.75;;;;;;;16.60;57.73;100768.75;4914647;29;20059;-84
2021/11/29 07:16:23;;;;;;;4.03;1.40;;;;;;;16.60;58.17;100779.16;4890385;29;20035;-84
2021/11/29 07:18:49;;;;;;;3.65;1.60;;;;;;;16.60;57.93;100771.34;4905061;29;20114;-84
2021/11/29 07:21:14;;;;;;;5.13;1.48;;;;;;;16.60;57.69;100755.75;4889660;29;20474;-84
2021/11/29 07:23:39;;;;;;;4.47;1.60;;;;;;;16.61;57.87;100761.81;4889855;29;20131;-84
2021/11/29 07:26:05;;;;;;;3.08;1.17;;;;;;;16.61;57.72;100757.50;4890548;29;20123;-85
2021/11/29 07:28:30;;;;;;;3.38;1.30;;;;;;;16.62;57.61;100753.16;4905758;29;20031;-84
2021/11/29 07:30:55;;;;;;;7.43;1.70;;;;;;;16.62;57.48;100758.34;4911076;29;20035;-84
2021/11/29 07:33:21;;;;;;;3.25;1.20;;;;;;;16.62;57.64;100772.22;4902530;29;20086;-82
2021/11/29 07:35:46;;;;;;;3.60;1.10;;;;;;;16.63;57.68;100768.72;4917861;29;20028;-80
2021/11/29 07:38:12;;;;;;;3.30;1.40;;;;;;;16.62;57.69;100764.41;4934751;29;20071;-81
2021/11/29 07:40:39;;;;;;;3.92;1.40;;;;;;;16.63;57.82;100768.72;4934254;29;20027;-83
2021/11/29 07:43:07;;;;;;;4.30;1.60;;;;;;;16.62;57.76;100764.41;4918747;29;20522;-81
2021/11/29 07:45:34;;;;;;;4.55;1.50;;;;;;;16.63;57.79;100773.06;4952525;29;20023;-83
2021/11/29 07:47:59;;;;;;;2.83;1.52;;;;;;;16.65;57.97;100781.72;4935955;29;20032;-83
2021/11/29 07:50:25;;;;;;;2.70;1.10;;;;;;;16.65;57.78;100785.16;4915281;29;20043;-83
2021/11/29 07:52:51;;;;;;;2.60;1.20;;;;;;;16.65;58.05;100795.56;4944159;29;20028;-83
2021/11/29 07:55:21;;;;;;;3.17;1.30;;;;;;;16.66;57.77;100805.09;4924237;29;20059;-82
2021/11/29 07:57:47;;;;;;;6.30;1.38;;;;;;;16.66;57.67;100814.63;4940346;29;20027;-84
2021/11/29 08:00:18;;;;;;;3.35;1.30;;;;;;;16.66;57.54;100812.03;4942007;29;20102;-82
2021/11/29 08:02:52;;;;;;;2.17;1.10;;;;;;;16.66;57.74;100812.03;4930718;29;20031;-83
2021/11/29 08:05:20;;;;;;;4.35;1.40;;;;;;;16.67;57.59;100822.41;4937431;29;20059;-83
2021/11/29 08:07:46;;;;;;;4.45;1.42;;;;;;;16.69;57.73;100826.75;4905457;29;20054;-83
2021/11/29 08:10:11;;;;;;;2.25;0.98;;;;;;;16.68;57.71;100825.88;4920998;29;20040;-84
2021/11/29 08:12:36;;;;;;;3.08;1.30;;;;;;;16.67;57.34;100822.41;4890729;29;20024;-84
2021/11/29 08:15:02;;;;;;;3.58;1.35;;;;;;;16.68;57.75;100833.69;4889971;29;20087;-85
2021/11/29 08:17:28;;;;;;;3.10;1.15;;;;;;;16.67;57.75;100845.78;4906033;29;20035;-84
2021/11/29 08:19:55;;;;;;;2.65;1.10;;;;;;;16.69;57.62;100853.56;4889823;29;20038;-83
2021/11/29 08:22:21;;;;;;;2.97;1.00;;;;;;;16.68;57.75;100854.47;4937893;29;20356;-84
2021/11/29 08:24:46;;;;;;;3.00;1.10;;;;;;;16.70;57.49;100854.44;4893137;29;20042;-84
2021/11/29 08:27:12;;;;;;;3.85;1.33;;;;;;;16.69;57.46;100850.97;4891343;29;20031;-84
2021/11/29 08:29:41;;;;;;;3.75;1.10;;;;;;;16.70;57.82;100849.22;4922892;29;20031;-82
2021/11/29 08:32:06;;;;;;;3.47;1.40;;;;;;;16.70;57.44;100851.84;4906526;29;20398;-82
2021/11/29 08:34:33;;;;;;;3.03;1.17;;;;;;;16.71;57.48;100851.84;4890897;29;20032;-85
2021/11/29 08:36:59;;;;;;;2.35;0.82;;;;;;;16.71;57.38;100861.38;4905195;29;20540;-82
2021/11/29 08:39:24;;;;;;;2.22;0.85;;;;;;;16.70;57.63;100860.53;4904424;29;20032;-84
2021/11/29 08:41:50;;;;;;;2.47;1.10;;;;;;;16.71;57.41;100863.97;4904326;29;20086;-83
2021/11/29 08:44:15;;;;;;;2.55;1.10;;;;;;;16.71;57.40;100857.03;4906377;29;20079;-85
2021/11/29 08:46:48;;;;;;;2.58;1.10;;;;;;;16.72;57.33;100860.50;4889356;29;20051;-84
2021/11/29 08:49:18;;;;;;;3.97;1.10;;;;;;;16.72;57.32;100863.94;4905217;29;20106;-81
2021/11/29 08:51:47;;;;;;;2.42;1.00;;;;;;;16.73;56.95;100863.09;4904050;29;20437;-80
2021/11/29 08:54:14;;;;;;;2.38;1.10;;;;;;;16.76;57.13;100857.84;4919237;29;20053;-82
2021/11/29 08:56:40;;;;;;;2.28;0.82;;;;;;;16.79;57.23;100847.47;4936625;29;20024;-83
2021/11/29 08:59:06;;;;;;;3.67;1.00;;;;;;;16.81;57.18;100863.06;4919225;29;20027;-82
2021/11/29 09:01:33;;;;;;;3.60;1.20;;;;;;;16.79;57.18;100862.19;4920539;29;20026;-83
2021/11/29 09:03:59;;;;;;;3.53;0.95;;;;;;;16.80;57.16;100866.53;4903728;29;20035;-82
2021/11/29 09:06:24;;;;;;;3.67;1.10;;;;;;;16.80;57.27;100869.16;4903563;29;20032;-82
2021/11/29 09:08:50;;;;;;;2.33;0.90;;;;;;;16.80;57.19;100887.34;4903316;29;20059;-80
2021/11/29 09:11:15;;;;;;;3.85;1.00;;;;;;;16.79;57.22;100903.78;4904030;29;20065;-83
2021/11/29 09:13:43;;;;;;;4.45;0.90;;;;;;;16.79;57.62;100909.84;4903367;29;20519;-82
2021/11/29 09:16:13;;;;;;;3.08;1.20;;;;;;;16.79;57.37;100915.03;4903296;29;20024;-79
2021/11/29 09:18:39;;;;;;;2.83;0.90;;;;;;;16.79;57.20;100912.44;4903810;29;20434;-81
2021/11/29 09:21:05;;;;;;;1.80;0.90;;;;;;;16.79;57.37;100904.63;4919028;29;20389;-80
2021/11/29 09:23:31;;;;;;;2.20;1.10;;;;;;;16.80;57.69;100903.78;4902822;29;20044;-83
2021/11/29 09:25:57;;;;;;;4.28;0.98;;;;;;;16.82;56.99;100908.97;4919003;29;20023;-81
2021/11/29 09:28:23;;;;;;;2.22;0.90;;;;;;;16.82;57.25;100907.25;4903013;29;20038;-81
2021/11/29 09:30:49;;;;;;;2.75;1.10;;;;;;;16.83;57.11;100898.59;4918747;29;20517;-81
2021/11/29 09:33:16;;;;;;;1.17;0.57;;;;;;;16.85;57.02;100904.66;4918671;29;20058;-79
2021/11/29 09:35:41;;;;;;;2.00;0.70;;;;;;;16.90;57.03;100911.53;4935371;29;20363;-81
2021/11/29 09:38:07;;;;;;;1.45;0.68;;;;;;;16.90;56.96;100909.81;4890791;29;20052;-81
2021/11/29 09:40:35;;;;;;;2.78;1.05;;;;;;;16.94;56.72;100916.72;4890811;29;20031;-82
2021/11/29 09:43:03;;;;;;;1.65;0.80;;;;;;;16.97;56.74;100919.28;4922141;29;20198;-81
2021/11/29 09:45:32;;;;;;;1.85;0.85;;;;;;;16.99;56.59;100920.16;4922219;29;20367;-82
2021/11/29 09:47:58;;;;;;;3.13;0.85;;;;;;;16.99;56.86;100932.28;4937694;29;20062;-81
2021/11/29 09:50:24;;;;;;;1.90;0.80;;;;;;;16.96;56.77;100929.69;4939381;29;20024;-81
2021/11/29 09:52:50;;;;;;;1.20;0.90;;;;;;;16.96;56.61;100938.38;4937737;29;20176;-82
2021/11/29 09:55:19;;;;;;;1.58;0.80;;;;;;;16.97;56.71;100945.28;4937482;29;20513;-82
2021/11/29 09:57:48;;;;;;;1.83;0.70;;;;;;;16.96;56.43;100959.19;4922109;29;20034;-82
2021/11/29 10:00:27;;;;;;;1.33;0.70;;;;;;;16.95;56.83;100957.44;4937604;29;20526;-82
2021/11/29 10:02:53;;;;;;;1.73;0.80;;;;;;;16.95;56.52;100951.38;4938055;29;20394;-81
2021/11/29 10:05:24;;;;;;;1.73;0.80;;;;;;;16.95;56.83;100957.44;4939186;29;20055;-82
2021/11/29 10:07:50;;;;;;;2.00;0.80;;;;;;;16.97;56.68;100947.88;4921755;29;20080;-83
2021/11/29 10:10:20;;;;;;;1.50;0.68;;;;;;;17.03;56.50;100950.47;4906018;29;20028;-83
2021/11/29 10:12:53;;;;;;;1.30;0.70;;;;;;;17.01;56.72;100951.34;4921961;29;20031;-84
2021/11/29 10:15:23;;;;;;;1.17;0.77;;;;;;;16.99;56.66;100947.91;4921789;29;20028;-83
2021/11/29 10:18:01;;;;;;;1.95;0.75;;;;;;;16.95;56.52;100947.03;4937643;29;20032;-83
2021/11/29 10:20:31;;;;;;;2.50;0.60;;;;;;;16.94;56.83;100949.63;4921727;29;20031;-81
2021/11/29 10:23:08;;;;;;;1.70;0.70;;;;;;;16.93;56.80;100942.72;4890506;29;20050;-83
2021/11/29 10:25:41;;;;;;;1.38;0.70;;;;;;;16.95;56.71;100941.84;4890639;29;20042;-82
2021/11/29 10:28:23;;;;;;;0.80;0.50;;;;;;;17.01;56.60;100948.75;4905564;29;20028;-82
2021/11/29 10:31:04;;;;;;;1.85;0.60;;;;;;;17.04;56.35;100946.97;4937155;29;20032;-83
2021/11/29 10:33:33;;;;;;;2.03;0.80;;;;;;;17.03;56.71;100945.25;4921711;29;20038;-83
2021/11/29 10:36:09;;;;;;;1.63;0.60;;;;;;;17.00;56.48;100950.47;4921144;29;20038;-83
2021/11/29 10:38:34;;;;;;;2.13;0.75;;;;;;;16.96;56.78;100945.28;4890265;29;20135;-84
2021/11/29 10:41:00;;;;;;;1.23;0.70;;;;;;;16.94;56.94;100944.44;4920922;29;20126;-82
2021/11/29 10:43:44;;;;;;;1.38;0.73;;;;;;;16.93;56.86;100953.97;4905276;29;20059;-83
2021/11/29 10:46:21;;;;;;;1.75;0.88;;;;;;;16.95;56.73;100957.44;4905209;29;20610;-80
2021/11/29 10:48:48;;;;;;;3.03;0.75;;;;;;;16.94;56.58;100955.72;4920611;29;20035;-80
2021/11/29 10:51:15;;;;;;;1.80;0.80;;;;;;;16.96;56.68;100953.97;4920676;29;20026;-82
2021/11/29 10:53:58;;;;;;;2.03;0.95;;;;;;;16.96;56.75;100953.97;4920618;29;20020;-82
2021/11/29 10:56:26;;;;;;;1.67;0.75;;;;;;;16.93;56.60;100953.97;4937606;29;20024;-81
2021/11/29 10:58:54;;;;;;;2.00;0.80;;;;;;;16.91;56.67;100952.25;4920557;29;20024;-80
2021/11/29 11:01:40;;;;;;;2.13;1.00;;;;;;;16.92;56.63;100953.97;4936552;29;20160;-80
2021/11/29 11:04:26;;;;;;;2.45;0.68;;;;;;;16.94;56.74;100954.84;4936298;29;20167;-82
2021/11/29 11:06:57;;;;;;;1.05;0.50;;;;;;;16.95;56.45;100959.19;4920580;29;20024;-82
2021/11/29 11:09:28;;;;;;;1.50;0.65;;;;;;;16.94;56.54;100960.91;4920335;29;20441;-81
2021/11/29 11:12:01;;;;;;;2.20;0.60;;;;;;;16.97;56.48;100966.09;4936303;29;20035;-82
2021/11/29 11:14:29;;;;;;;1.45;0.60;;;;;;;16.98;56.57;100969.53;4936338;29;20913;-80
2021/11/29 11:17:00;;;;;;;1.50;0.60;;;;;;;17.02;56.32;100966.91;4936571;29;20119;-82
2021/11/29 11:19:25;;;;;;;2.30;0.90;;;;;;;17.06;56.41;100971.25;4937675;29;20111;-80
2021/11/29 11:21:54;;;;;;;2.92;0.80;;;;;;;17.05;55.97;100972.13;4936330;29;20063;-78
2021/11/29 11:24:23;;;;;;;2.38;0.70;;;;;;;17.03;56.29;100973.00;4935963;29;20043;-80